Paradise Creek — WDH2086 — position and weather

sailwx.info

Track history (hours):
 
Tides and Currents Weather Stations Pressure Air Temp Water Temp Dewpoint Dewpoint Depression Visibility Wind Speed Wind Dir Waves Ship Positions

Paradise Creek

Owner: Vane Line Bunkering, Inc, Philadelphia, PA. More information available from US FCC via Universal Licensing System.

Last reported at 2017-Oct-15 23:51 UTC. Time now 2017-Oct-18 20:32 UTC.
Position N 36°54' W 076°20'.

Length 22 m; draft 4 m.

Type: Towing. MMSI: 367594250.

Date/timePositionNaut miles runAvg speedWind from/ knotsBaromVisibWave heightAir tempDewpointWater temp
2017-Oct-15 23:51N 36°54' W 076°20'3 8.2
2017-Oct-15 23:30N 36°51' W 076°18'3 6.8
2017-Oct-15 23:01N 36°48' W 076°18'0 0.3
2017-Oct-15 22:31N 36°48' W 076°18'0 0.0
2017-Oct-15 22:01N 36°48' W 076°18'0 0.0
2017-Oct-15 21:31N 36°48' W 076°18'0 0.0
2017-Oct-15 21:01N 36°48' W 076°18'0 0.0
2017-Oct-15 20:31N 36°48' W 076°18'0 0.0
2017-Oct-15 20:01N 36°48' W 076°18'0 0.0
2017-Oct-15 19:30N 36°48' W 076°18'0 0.0
2017-Oct-15 15:47N 36°48' W 076°18'0 0.0
2017-Oct-15 15:31N 36°48' W 076°18'0 0.0
2017-Oct-15 15:01N 36°48' W 076°18'0 0.0
2017-Oct-15 14:01N 36°48' W 076°18'0 0.0
2017-Oct-15 13:31N 36°48' W 076°18'0 0.0
2017-Oct-15 06:39N 36°48' W 076°18'0 0.0
2017-Oct-15 06:31N 36°48' W 076°18'0 0.0
2017-Oct-15 06:01N 36°48' W 076°18'0 0.0
2017-Oct-15 05:31N 36°48' W 076°18'0 0.0
2017-Oct-15 05:01N 36°48' W 076°18'0 0.0
2017-Oct-15 04:30N 36°48' W 076°18'0 0.0
2017-Oct-15 04:00N 36°48' W 076°18'0 0.0
2017-Oct-15 03:30N 36°48' W 076°18'0 0.0
2017-Oct-15 03:01N 36°48' W 076°18'0 0.0
2017-Oct-15 02:31N 36°48' W 076°18'0 0.0
2017-Oct-15 02:01N 36°48' W 076°18'0 0.0
2017-Oct-15 01:31N 36°48' W 076°18'0 0.0
2017-Oct-15 01:01N 36°48' W 076°18'0 0.0
2017-Oct-15 00:30N 36°48' W 076°18'0 0.0
2017-Oct-15 00:00N 36°48' W 076°18'0 0.0
2017-Oct-14 21:34N 36°48' W 076°18'0 0.0
2017-Oct-14 21:31N 36°48' W 076°18'2 3.1
2017-Oct-14 21:01N 36°46' W 076°18'3 5.6
2017-Oct-14 20:31N 36°44' W 076°16'2 3.5
2017-Oct-14 20:01N 36°43' W 076°14'0 0.3
2017-Oct-14 19:26N 36°43' W 076°14'7 4.5
2017-Oct-14 17:57N 36°43' W 076°06'7 0.6
2017-Oct-14 05:54N 36°43' W 076°14'1 1.2
2017-Oct-14 05:22N 36°43' W 076°15'2 4.7
2017-Oct-14 05:00N 36°44' W 076°17'3 5.3
2017-Oct-14 04:30N 36°47' W 076°18'0 0.7
2017-Oct-14 04:01N 36°47' W 076°18'1 2.2
2017-Oct-14 03:31N 36°48' W 076°18'3 6.4
2017-Oct-14 03:00N 36°51' W 076°18'2 0.4
2017-Oct-13 21:19N 36°53' W 076°20'3 8.4
2017-Oct-13 21:01N 36°51' W 076°18'4 7.3
2017-Oct-13 20:30N 36°47' W 076°18'3 5.9
2017-Oct-13 20:00N 36°44' W 076°18'2 4.0
2017-Oct-13 19:24N 36°43' W 076°15'7 5.3
2017-Oct-13 18:00N 36°43' W 076°06'9 0.2
2017-Oct-11 17:37N 36°44' W 076°16'1 5.1
2017-Oct-11 17:20N 36°44' W 076°18'2 6.0
2017-Oct-11 16:58N 36°47' W 076°18'5 0.3
2017-Oct-10 22:30N 36°51' W 076°18'3 4.7
2017-Oct-10 21:52N 36°50' W 076°15'1 2.5
2017-Oct-10 21:17N 36°50' W 076°17'1 4.1
2017-Oct-10 20:59N 36°49' W 076°17'1 2.7
2017-Oct-10 20:30N 36°48' W 076°18'0 0.0
2017-Oct-10 19:59N 36°48' W 076°18'0 0.0
2017-Oct-10 19:30N 36°48' W 076°18'0 0.0
2017-Oct-10 19:01N 36°48' W 076°18'0 0.0
2017-Oct-10 18:29N 36°48' W 076°18'0 0.0
2017-Oct-10 17:58N 36°48' W 076°18'0 0.0
2017-Oct-10 17:20N 36°48' W 076°18'0 0.0
2017-Oct-10 16:56N 36°48' W 076°18'0 0.0
2017-Oct-10 16:30N 36°48' W 076°18'0 0.0
2017-Oct-10 15:53N 36°48' W 076°18'0 0.0
2017-Oct-10 15:29N 36°48' W 076°18'0 0.0
2017-Oct-10 14:52N 36°48' W 076°18'0 0.0
2017-Oct-10 14:00N 36°48' W 076°18'0 0.0
2017-Oct-10 13:14N 36°48' W 076°18'0 0.2
2017-Oct-10 13:00N 36°48' W 076°18'0 0.1
2017-Oct-10 12:29N 36°48' W 076°18'0 0.0
2017-Oct-10 11:46N 36°48' W 076°18'0 0.0
2017-Oct-10 11:22N 36°48' W 076°18'0 0.0
2017-Oct-10 11:00N 36°48' W 076°18'0 0.0
2017-Oct-10 10:26N 36°48' W 076°18'0 0.0
2017-Oct-10 09:58N 36°48' W 076°18'0 0.0
2017-Oct-10 09:28N 36°48' W 076°18'0 0.0
2017-Oct-10 08:59N 36°48' W 076°18'0 0.0
2017-Oct-10 08:28N 36°48' W 076°18'0 0.0
2017-Oct-10 08:00N 36°48' W 076°18'0 0.0
2017-Oct-10 07:29N 36°48' W 076°18'0 0.0
2017-Oct-10 06:59N 36°48' W 076°18'0 0.0
2017-Oct-10 06:30N 36°48' W 076°18'0 0.0
2017-Oct-09 06:16N 36°48' W 076°18'0 0.0
2017-Oct-09 04:37N 36°48' W 076°18'0 0.0
2017-Oct-09 04:29N 36°48' W 076°18'0 0.0
2017-Oct-09 03:59N 36°48' W 076°18'0 0.0
2017-Oct-09 03:31N 36°48' W 076°18'0 0.0
2017-Oct-09 02:54N 36°48' W 076°18'0 0.0
2017-Oct-09 02:29N 36°48' W 076°18'0 0.0
2017-Oct-09 01:59N 36°48' W 076°18'0 0.0
2017-Oct-09 01:27N 36°48' W 076°18'0 0.0
2017-Oct-09 00:58N 36°48' W 076°18'0 0.0
2017-Oct-09 00:31N 36°48' W 076°18'0 0.0
2017-Oct-09 00:00N 36°48' W 076°18'0 0.0
2017-Oct-08 23:26N 36°48' W 076°18'0 0.0
2017-Oct-08 23:00N 36°48' W 076°18'0 0.0
2017-Oct-08 22:16N 36°48' W 076°18'0 0.0
2017-Oct-08 22:00N 36°48' W 076°18'0 0.0
2017-Oct-08 21:29N 36°48' W 076°18'0 0.0
2017-Oct-08 21:00N 36°48' W 076°18'0 0.0
2017-Oct-08 20:27N 36°48' W 076°18'0 0.0
2017-Oct-08 20:01N 36°48' W 076°18'0 0.0
2017-Oct-08 19:26N 36°48' W 076°18'0 0.0
2017-Oct-08 19:00N 36°48' W 076°18'0 0.0
2017-Oct-08 18:30N 36°48' W 076°18'0 0.0
2017-Oct-08 18:00N 36°48' W 076°18'0 0.0
2017-Oct-08 17:31N 36°48' W 076°18'0 0.0
2017-Oct-08 16:57N 36°48' W 076°18'0 0.0
2017-Oct-08 16:30N 36°48' W 076°18'0 0.0
2017-Oct-08 15:58N 36°48' W 076°18'0 0.0
2017-Oct-08 15:29N 36°48' W 076°18'0 0.0
2017-Oct-08 14:59N 36°48' W 076°18'0 0.0
2017-Oct-08 14:30N 36°48' W 076°18'0 0.0
2017-Oct-08 14:00N 36°48' W 076°18'0 0.0
2017-Oct-08 13:29N 36°48' W 076°18'0 0.0
2017-Oct-08 12:59N 36°48' W 076°18'0 0.0
2017-Oct-08 12:31N 36°48' W 076°18'0 0.0
2017-Oct-08 11:57N 36°48' W 076°18'0 0.0
2017-Oct-08 11:29N 36°48' W 076°18'0 0.0
2017-Oct-08 11:01N 36°48' W 076°18'0 0.0
2017-Oct-08 10:17N 36°48' W 076°18'0 0.0
2017-Oct-08 10:00N 36°48' W 076°18'0 0.0
2017-Oct-08 09:30N 36°48' W 076°18'0 0.0
2017-Oct-08 08:52N 36°48' W 076°18'0 0.0
2017-Oct-08 08:26N 36°48' W 076°18'0 0.0
2017-Oct-08 07:59N 36°48' W 076°18'0 0.0
2017-Oct-08 07:29N 36°48' W 076°18'0 0.0
2017-Oct-08 06:59N 36°48' W 076°18'0 0.0
2017-Oct-08 06:30N 36°48' W 076°18'0 0.0
2017-Oct-08 05:58N 36°48' W 076°18'0 0.0
2017-Oct-08 05:23N 36°48' W 076°18'0 0.0
2017-Oct-07 22:38N 36°48' W 076°18'0 0.0
2017-Oct-07 22:27N 36°48' W 076°18'0 0.0
2017-Oct-07 22:01N 36°48' W 076°18'0 0.0
2017-Oct-07 21:31N 36°48' W 076°18'0 0.0
2017-Oct-07 21:01N 36°48' W 076°18'0 0.0
2017-Oct-07 20:31N 36°48' W 076°18'0 0.0
2017-Oct-07 20:01N 36°48' W 076°18'0 0.0
2017-Oct-07 19:31N 36°48' W 076°18'0 0.0
2017-Oct-07 19:01N 36°48' W 076°18'0 0.0
2017-Oct-07 18:31N 36°48' W 076°18'0 0.0
2017-Oct-07 18:01N 36°48' W 076°18'0 0.0
2017-Oct-07 17:30N 36°48' W 076°18'0 0.0
2017-Oct-07 17:00N 36°48' W 076°18'0 0.0
2017-Oct-07 16:31N 36°48' W 076°18'0 0.0
2017-Oct-07 16:01N 36°48' W 076°18'0 0.0
2017-Oct-07 15:30N 36°48' W 076°18'0 0.0
2017-Oct-07 15:01N 36°48' W 076°18'0 0.0
2017-Oct-07 14:31N 36°48' W 076°18'0 0.0
2017-Oct-07 14:01N 36°48' W 076°18'0 0.0
2017-Oct-07 13:31N 36°48' W 076°18'0 0.0
2017-Oct-07 13:00N 36°48' W 076°18'0 0.0
2017-Oct-07 12:31N 36°48' W 076°18'0 0.0
2017-Oct-07 12:01N 36°48' W 076°18'0 0.0
2017-Oct-07 11:31N 36°48' W 076°18'0 0.0
2017-Oct-07 11:01N 36°48' W 076°18'0 0.0
2017-Oct-07 10:30N 36°48' W 076°18'0 0.0
2017-Oct-07 10:00N 36°48' W 076°18'0 0.0
2017-Oct-07 09:31N 36°48' W 076°18'0 0.0
2017-Oct-07 09:01N 36°48' W 076°18'0 0.0
2017-Oct-07 08:31N 36°48' W 076°18'0 0.0
2017-Oct-07 08:00N 36°48' W 076°18'0 0.0
2017-Oct-07 07:31N 36°48' W 076°18'0 0.0
2017-Oct-07 07:01N 36°48' W 076°18'0 0.0
2017-Oct-07 06:31N 36°48' W 076°18'0 0.0
2017-Oct-07 06:00N 36°48' W 076°18'0 0.0
2017-Oct-07 05:31N 36°48' W 076°18'0 0.0
2017-Oct-07 05:01N 36°48' W 076°18'0 0.0
2017-Oct-07 04:30N 36°48' W 076°18'0 0.0
2017-Oct-07 04:01N 36°48' W 076°18'0 0.0
2017-Oct-07 03:31N 36°48' W 076°18'0 0.0
2017-Oct-07 03:01N 36°48' W 076°18'0 0.0
2017-Oct-07 02:31N 36°48' W 076°18'0 0.0
2017-Oct-07 02:01N 36°48' W 076°18'0 0.0
2017-Oct-07 01:31N 36°48' W 076°18'0 0.0
2017-Oct-07 01:01N 36°48' W 076°18'0 0.0
2017-Oct-07 00:31N 36°48' W 076°18'0 0.0
2017-Oct-07 00:01N 36°48' W 076°18'0 0.0
2017-Oct-06 23:31N 36°48' W 076°18'0 0.0
2017-Oct-06 23:00N 36°48' W 076°18'0 0.0
2017-Oct-06 22:31N 36°48' W 076°18'1 2.6
2017-Oct-06 22:01N 36°49' W 076°17'2 4.7
2017-Oct-06 21:31N 36°50' W 076°15'2 4.4
2017-Oct-06 21:01N 36°50' W 076°18'3 5.3
2017-Oct-06 20:31N 36°48' W 076°18'3 5.4
2017-Oct-06 20:00N 36°45' W 076°18'3 5.3
2017-Oct-06 19:30N 36°43' W 076°15'8 4.5
2017-Oct-06 17:47N 36°43' W 076°06'7 0.6
2017-Oct-06 05:55N 36°43' W 076°14'1 1.0
2017-Oct-06 05:13N 36°43' W 076°15'1 2.9
2017-Oct-06 04:58N 36°44' W 076°16'2 3.8
2017-Oct-06 04:30N 36°45' W 076°18'2 4.1
2017-Oct-06 04:00N 36°47' W 076°18'3 5.0
2017-Oct-06 03:30N 36°49' W 076°17'3 6.4
2017-Oct-06 02:58N 36°52' W 076°20'  
Track history (hours):
 
Tides and Currents Weather Stations Pressure Air Temp Water Temp Dewpoint Dewpoint Depression Visibility Wind Speed Wind Dir Waves Ship Positions

Paradise Creek

Owner: Vane Line Bunkering, Inc, Philadelphia, PA. More information available from US FCC via Universal Licensing System.

Last reported at 2017-Oct-15 23:51 UTC. Time now 2017-Oct-18 20:32 UTC.
Position N 36°54' W 076°20'.

Length 22 m; draft 4 m.

Type: Towing. MMSI: 367594250.

Date/timePositionNaut miles runAvg speedWind from/ knotsBaromVisibWave heightAir tempDewpointWater temp
2017-Oct-15 23:51N 36°54' W 076°20'3 8.2
2017-Oct-15 23:30N 36°51' W 076°18'3 6.8
2017-Oct-15 23:01N 36°48' W 076°18'0 0.3
2017-Oct-15 22:31N 36°48' W 076°18'0 0.0
2017-Oct-15 22:01N 36°48' W 076°18'0 0.0
2017-Oct-15 21:31N 36°48' W 076°18'0 0.0
2017-Oct-15 21:01N 36°48' W 076°18'0 0.0
2017-Oct-15 20:31N 36°48' W 076°18'0 0.0
2017-Oct-15 20:01N 36°48' W 076°18'0 0.0
2017-Oct-15 19:30N 36°48' W 076°18'0 0.0
2017-Oct-15 15:47N 36°48' W 076°18'0 0.0
2017-Oct-15 15:31N 36°48' W 076°18'0 0.0
2017-Oct-15 15:01N 36°48' W 076°18'0 0.0
2017-Oct-15 14:01N 36°48' W 076°18'0 0.0
2017-Oct-15 13:31N 36°48' W 076°18'0 0.0
2017-Oct-15 06:39N 36°48' W 076°18'0 0.0
2017-Oct-15 06:31N 36°48' W 076°18'0 0.0
2017-Oct-15 06:01N 36°48' W 076°18'0 0.0
2017-Oct-15 05:31N 36°48' W 076°18'0 0.0
2017-Oct-15 05:01N 36°48' W 076°18'0 0.0
2017-Oct-15 04:30N 36°48' W 076°18'0 0.0
2017-Oct-15 04:00N 36°48' W 076°18'0 0.0
2017-Oct-15 03:30N 36°48' W 076°18'0 0.0
2017-Oct-15 03:01N 36°48' W 076°18'0 0.0
2017-Oct-15 02:31N 36°48' W 076°18'0 0.0
2017-Oct-15 02:01N 36°48' W 076°18'0 0.0
2017-Oct-15 01:31N 36°48' W 076°18'0 0.0
2017-Oct-15 01:01N 36°48' W 076°18'0 0.0
2017-Oct-15 00:30N 36°48' W 076°18'0 0.0
2017-Oct-15 00:00N 36°48' W 076°18'0 0.0
2017-Oct-14 21:34N 36°48' W 076°18'0 0.0
2017-Oct-14 21:31N 36°48' W 076°18'2 3.1
2017-Oct-14 21:01N 36°46' W 076°18'3 5.6
2017-Oct-14 20:31N 36°44' W 076°16'2 3.5
2017-Oct-14 20:01N 36°43' W 076°14'0 0.3
2017-Oct-14 19:26N 36°43' W 076°14'7 4.5
2017-Oct-14 17:57N 36°43' W 076°06'7 0.6
2017-Oct-14 05:54N 36°43' W 076°14'1 1.2
2017-Oct-14 05:22N 36°43' W 076°15'2 4.7
2017-Oct-14 05:00N 36°44' W 076°17'3 5.3
2017-Oct-14 04:30N 36°47' W 076°18'0 0.7
2017-Oct-14 04:01N 36°47' W 076°18'1 2.2
2017-Oct-14 03:31N 36°48' W 076°18'3 6.4
2017-Oct-14 03:00N 36°51' W 076°18'2 0.4
2017-Oct-13 21:19N 36°53' W 076°20'3 8.4
2017-Oct-13 21:01N 36°51' W 076°18'4 7.3
2017-Oct-13 20:30N 36°47' W 076°18'3 5.9
2017-Oct-13 20:00N 36°44' W 076°18'2 4.0
2017-Oct-13 19:24N 36°43' W 076°15'7 5.3
2017-Oct-13 18:00N 36°43' W 076°06'9 0.2
2017-Oct-11 17:37N 36°44' W 076°16'1 5.1
2017-Oct-11 17:20N 36°44' W 076°18'2 6.0
2017-Oct-11 16:58N 36°47' W 076°18'5 0.3
2017-Oct-10 22:30N 36°51' W 076°18'3 4.7
2017-Oct-10 21:52N 36°50' W 076°15'1 2.5
2017-Oct-10 21:17N 36°50' W 076°17'1 4.1
2017-Oct-10 20:59N 36°49' W 076°17'1 2.7
2017-Oct-10 20:30N 36°48' W 076°18'0 0.0
2017-Oct-10 19:59N 36°48' W 076°18'0 0.0
2017-Oct-10 19:30N 36°48' W 076°18'0 0.0
2017-Oct-10 19:01N 36°48' W 076°18'0 0.0
2017-Oct-10 18:29N 36°48' W 076°18'0 0.0
2017-Oct-10 17:58N 36°48' W 076°18'0 0.0
2017-Oct-10 17:20N 36°48' W 076°18'0 0.0
2017-Oct-10 16:56N 36°48' W 076°18'0 0.0
2017-Oct-10 16:30N 36°48' W 076°18'0 0.0
2017-Oct-10 15:53N 36°48' W 076°18'0 0.0
2017-Oct-10 15:29N 36°48' W 076°18'0 0.0
2017-Oct-10 14:52N 36°48' W 076°18'0 0.0
2017-Oct-10 14:00N 36°48' W 076°18'0 0.0
2017-Oct-10 13:14N 36°48' W 076°18'0 0.2
2017-Oct-10 13:00N 36°48' W 076°18'0 0.1
2017-Oct-10 12:29N 36°48' W 076°18'0 0.0
2017-Oct-10 11:46N 36°48' W 076°18'0 0.0
2017-Oct-10 11:22N 36°48' W 076°18'0 0.0
2017-Oct-10 11:00N 36°48' W 076°18'0 0.0
2017-Oct-10 10:26N 36°48' W 076°18'0 0.0
2017-Oct-10 09:58N 36°48' W 076°18'0 0.0
2017-Oct-10 09:28N 36°48' W 076°18'0 0.0
2017-Oct-10 08:59N 36°48' W 076°18'0 0.0
2017-Oct-10 08:28N 36°48' W 076°18'0 0.0
2017-Oct-10 08:00N 36°48' W 076°18'0 0.0
2017-Oct-10 07:29N 36°48' W 076°18'0 0.0
2017-Oct-10 06:59N 36°48' W 076°18'0 0.0
2017-Oct-10 06:30N 36°48' W 076°18'0 0.0
2017-Oct-09 06:16N 36°48' W 076°18'0 0.0
2017-Oct-09 04:37N 36°48' W 076°18'0 0.0
2017-Oct-09 04:29N 36°48' W 076°18'0 0.0
2017-Oct-09 03:59N 36°48' W 076°18'0 0.0
2017-Oct-09 03:31N 36°48' W 076°18'0 0.0
2017-Oct-09 02:54N 36°48' W 076°18'0 0.0
2017-Oct-09 02:29N 36°48' W 076°18'0 0.0
2017-Oct-09 01:59N 36°48' W 076°18'0 0.0
2017-Oct-09 01:27N 36°48' W 076°18'0 0.0
2017-Oct-09 00:58N 36°48' W 076°18'0 0.0
2017-Oct-09 00:31N 36°48' W 076°18'0 0.0
2017-Oct-09 00:00N 36°48' W 076°18'0 0.0
2017-Oct-08 23:26N 36°48' W 076°18'0 0.0
2017-Oct-08 23:00N 36°48' W 076°18'0 0.0
2017-Oct-08 22:16N 36°48' W 076°18'0 0.0
2017-Oct-08 22:00N 36°48' W 076°18'0 0.0
2017-Oct-08 21:29N 36°48' W 076°18'0 0.0
2017-Oct-08 21:00N 36°48' W 076°18'0 0.0
2017-Oct-08 20:27N 36°48' W 076°18'0 0.0
2017-Oct-08 20:01N 36°48' W 076°18'0 0.0
2017-Oct-08 19:26N 36°48' W 076°18'0 0.0
2017-Oct-08 19:00N 36°48' W 076°18'0 0.0
2017-Oct-08 18:30N 36°48' W 076°18'0 0.0
2017-Oct-08 18:00N 36°48' W 076°18'0 0.0
2017-Oct-08 17:31N 36°48' W 076°18'0 0.0
2017-Oct-08 16:57N 36°48' W 076°18'0 0.0
2017-Oct-08 16:30N 36°48' W 076°18'0 0.0
2017-Oct-08 15:58N 36°48' W 076°18'0 0.0
2017-Oct-08 15:29N 36°48' W 076°18'0 0.0
2017-Oct-08 14:59N 36°48' W 076°18'0 0.0
2017-Oct-08 14:30N 36°48' W 076°18'0 0.0
2017-Oct-08 14:00N 36°48' W 076°18'0 0.0
2017-Oct-08 13:29N 36°48' W 076°18'0 0.0
2017-Oct-08 12:59N 36°48' W 076°18'0 0.0
2017-Oct-08 12:31N 36°48' W 076°18'0 0.0
2017-Oct-08 11:57N 36°48' W 076°18'0 0.0
2017-Oct-08 11:29N 36°48' W 076°18'0 0.0
2017-Oct-08 11:01N 36°48' W 076°18'0 0.0
2017-Oct-08 10:17N 36°48' W 076°18'0 0.0
2017-Oct-08 10:00N 36°48' W 076°18'0 0.0
2017-Oct-08 09:30N 36°48' W 076°18'0 0.0
2017-Oct-08 08:52N 36°48' W 076°18'0 0.0
2017-Oct-08 08:26N 36°48' W 076°18'0 0.0
2017-Oct-08 07:59N 36°48' W 076°18'0 0.0
2017-Oct-08 07:29N 36°48' W 076°18'0 0.0
2017-Oct-08 06:59N 36°48' W 076°18'0 0.0
2017-Oct-08 06:30N 36°48' W 076°18'0 0.0
2017-Oct-08 05:58N 36°48' W 076°18'0 0.0
2017-Oct-08 05:23N 36°48' W 076°18'0 0.0
2017-Oct-07 22:38N 36°48' W 076°18'0 0.0
2017-Oct-07 22:27N 36°48' W 076°18'0 0.0
2017-Oct-07 22:01N 36°48' W 076°18'0 0.0
2017-Oct-07 21:31N 36°48' W 076°18'0 0.0
2017-Oct-07 21:01N 36°48' W 076°18'0 0.0
2017-Oct-07 20:31N 36°48' W 076°18'0 0.0
2017-Oct-07 20:01N 36°48' W 076°18'0 0.0
2017-Oct-07 19:31N 36°48' W 076°18'0 0.0
2017-Oct-07 19:01N 36°48' W 076°18'0 0.0
2017-Oct-07 18:31N 36°48' W 076°18'0 0.0
2017-Oct-07 18:01N 36°48' W 076°18'0 0.0
2017-Oct-07 17:30N 36°48' W 076°18'0 0.0
2017-Oct-07 17:00N 36°48' W 076°18'0 0.0
2017-Oct-07 16:31N 36°48' W 076°18'0 0.0
2017-Oct-07 16:01N 36°48' W 076°18'0 0.0
2017-Oct-07 15:30N 36°48' W 076°18'0 0.0
2017-Oct-07 15:01N 36°48' W 076°18'0 0.0
2017-Oct-07 14:31N 36°48' W 076°18'0 0.0
2017-Oct-07 14:01N 36°48' W 076°18'0 0.0
2017-Oct-07 13:31N 36°48' W 076°18'0 0.0
2017-Oct-07 13:00N 36°48' W 076°18'0 0.0
2017-Oct-07 12:31N 36°48' W 076°18'0 0.0
2017-Oct-07 12:01N 36°48' W 076°18'0 0.0
2017-Oct-07 11:31N 36°48' W 076°18'0 0.0
2017-Oct-07 11:01N 36°48' W 076°18'0 0.0
2017-Oct-07 10:30N 36°48' W 076°18'0 0.0
2017-Oct-07 10:00N 36°48' W 076°18'0 0.0
2017-Oct-07 09:31N 36°48' W 076°18'0 0.0
2017-Oct-07 09:01N 36°48' W 076°18'0 0.0
2017-Oct-07 08:31N 36°48' W 076°18'0 0.0
2017-Oct-07 08:00N 36°48' W 076°18'0 0.0
2017-Oct-07 07:31N 36°48' W 076°18'0 0.0
2017-Oct-07 07:01N 36°48' W 076°18'0 0.0
2017-Oct-07 06:31N 36°48' W 076°18'0 0.0
2017-Oct-07 06:00N 36°48' W 076°18'0 0.0
2017-Oct-07 05:31N 36°48' W 076°18'0 0.0
2017-Oct-07 05:01N 36°48' W 076°18'0 0.0
2017-Oct-07 04:30N 36°48' W 076°18'0 0.0
2017-Oct-07 04:01N 36°48' W 076°18'0 0.0
2017-Oct-07 03:31N 36°48' W 076°18'0 0.0
2017-Oct-07 03:01N 36°48' W 076°18'0 0.0
2017-Oct-07 02:31N 36°48' W 076°18'0 0.0
2017-Oct-07 02:01N 36°48' W 076°18'0 0.0
2017-Oct-07 01:31N 36°48' W 076°18'0 0.0
2017-Oct-07 01:01N 36°48' W 076°18'0 0.0
2017-Oct-07 00:31N 36°48' W 076°18'0 0.0
2017-Oct-07 00:01N 36°48' W 076°18'0 0.0
2017-Oct-06 23:31N 36°48' W 076°18'0 0.0
2017-Oct-06 23:00N 36°48' W 076°18'0 0.0
2017-Oct-06 22:31N 36°48' W 076°18'1 2.6
2017-Oct-06 22:01N 36°49' W 076°17'2 4.7
2017-Oct-06 21:31N 36°50' W 076°15'2 4.4
2017-Oct-06 21:01N 36°50' W 076°18'3 5.3
2017-Oct-06 20:31N 36°48' W 076°18'3 5.4
2017-Oct-06 20:00N 36°45' W 076°18'3 5.3
2017-Oct-06 19:30N 36°43' W 076°15'8 4.5
2017-Oct-06 17:47N 36°43' W 076°06'7 0.6
2017-Oct-06 05:55N 36°43' W 076°14'1 1.0
2017-Oct-06 05:13N 36°43' W 076°15'1 2.9
2017-Oct-06 04:58N 36°44' W 076°16'2 3.8
2017-Oct-06 04:30N 36°45' W 076°18'2 4.1
2017-Oct-06 04:00N 36°47' W 076°18'3 5.0
2017-Oct-06 03:30N 36°49' W 076°17'3 6.4
2017-Oct-06 02:58N 36°52' W 076°20'  

Dump ship's entire track history